Time;durP1;ratioP1;P1;durP2;ratioP2;P2;SDS_P1;SDS_P2;PMS_P1;PMS_P2;Temp;Humidity;BMP_temperature;BMP_pressure;BME280_temperature;BME280_humidity;BME280_pressure;Samples;Min_cycle;Max_cycle;Signal;HPM_P1;HPM_P2
2022/09/10 00:00:38;;;;;;;4.60;1.50;;;;;;;;;;5078426;28;20844;-78
2022/09/10 00:03:04;;;;;;;3.60;1.70;;;;;;;;;;5078379;28;20177;-78
2022/09/10 00:05:37;;;;;;;3.07;1.40;;;;;;;;;;5078925;28;20196;-78
2022/09/10 00:08:05;;;;;;;5.10;1.90;;;;;;;;;;5089713;28;20260;-78
2022/09/10 00:10:31;;;;;;;2.47;1.40;;;;;;;;;;5076143;28;20196;-78
2022/09/10 00:12:57;;;;;;;2.43;1.60;;;;;;;;;;5088114;28;20177;-78
2022/09/10 00:15:23;;;;;;;2.73;1.50;;;;;;;;;;5068838;28;20203;-78
2022/09/10 00:17:49;;;;;;;4.00;1.83;;;;;;;;;;5076842;28;20301;-78
2022/09/10 00:20:15;;;;;;;3.73;1.50;;;;;;;;;;5081653;28;20172;-78
2022/09/10 00:22:42;;;;;;;2.60;1.40;;;;;;;;;;5093811;28;20230;-78
2022/09/10 00:25:08;;;;;;;2.53;1.40;;;;;;;;;;5083610;28;20724;-78
2022/09/10 00:27:36;;;;;;;1.93;1.30;;;;;;;;;;5054160;28;20219;-78
2022/09/10 00:30:03;;;;;;;1.57;1.27;;;;;;;;;;5071952;28;20275;-78
2022/09/10 00:32:29;;;;;;;3.67;1.30;;;;;;;;;;5056564;28;20184;-78
2022/09/10 00:34:55;;;;;;;3.20;1.33;;;;;;;;;;5104087;28;20826;-78
2022/09/10 00:37:22;;;;;;;2.97;1.23;;;;;;;;;;5097239;28;20652;-78
2022/09/10 00:39:48;;;;;;;2.83;1.20;;;;;;;;;;5062164;28;20204;-78
2022/09/10 00:42:16;;;;;;;2.63;1.20;;;;;;;;;;5058311;28;20303;-78
2022/09/10 00:44:43;;;;;;;2.67;1.17;;;;;;;;;;5061117;28;20187;-78
2022/09/10 00:47:19;;;;;;;2.83;1.07;;;;;;;;;;5075992;28;20234;-78
2022/09/10 00:49:48;;;;;;;1.23;1.10;;;;;;;;;;5093647;28;20200;-78
2022/09/10 00:52:14;;;;;;;3.00;1.23;;;;;;;;;;5072116;28;20200;-78
2022/09/10 00:54:42;;;;;;;4.67;1.40;;;;;;;;;;5083106;28;20640;-78
2022/09/10 00:57:15;;;;;;;1.97;1.20;;;;;;;;;;5094070;28;20176;-78
2022/09/10 00:59:44;;;;;;;1.70;1.10;;;;;;;;;;5096274;28;20199;-78
2022/09/10 01:02:10;;;;;;;2.73;1.13;;;;;;;;;;5102753;28;20185;-78
2022/09/10 01:04:38;;;;;;;1.13;0.93;;;;;;;;;;5077940;28;20187;-78
2022/09/10 01:07:05;;;;;;;3.90;1.10;;;;;;;;;;5096838;28;20217;-78
2022/09/10 01:09:31;;;;;;;1.27;0.93;;;;;;;;;;5076304;28;20201;-78
2022/09/10 01:12:14;;;;;;;2.07;1.20;;;;;;;;;;5083254;28;20203;-78
2022/09/10 01:14:47;;;;;;;2.03;1.30;;;;;;;;;;5078259;28;20206;-78
2022/09/10 01:17:18;;;;;;;2.87;1.00;;;;;;;;;;5094559;28;20205;-78
2022/09/10 01:20:03;;;;;;;3.80;1.10;;;;;;;;;;5082757;28;20678;-78
2022/09/10 01:22:56;;;;;;;2.17;1.13;;;;;;;;;;5081095;28;20257;-78
2022/09/10 01:25:43;;;;;;;1.20;1.00;;;;;;;;;;5076459;28;20177;-78
2022/09/10 01:28:16;;;;;;;2.87;1.10;;;;;;;;;;5082506;28;20214;-78
2022/09/10 01:30:46;;;;;;;1.43;0.90;;;;;;;;;;5058184;28;20179;-78
2022/09/10 01:33:30;;;;;;;1.87;1.20;;;;;;;;;;5059789;28;20200;-78
2022/09/10 01:36:01;;;;;;;1.80;1.00;;;;;;;;;;5058892;28;20862;-78
2022/09/10 01:38:30;;;;;;;2.03;1.27;;;;;;;;;;5083850;28;20212;-77
2022/09/10 01:40:58;;;;;;;2.03;1.00;;;;;;;;;;5077847;28;20258;-78
2022/09/10 01:43:27;;;;;;;2.07;1.00;;;;;;;;;;5047588;28;20188;-78
2022/09/10 01:46:09;;;;;;;1.90;1.00;;;;;;;;;;5087030;28;20237;-78
2022/09/10 01:48:48;;;;;;;3.77;1.10;;;;;;;;;;5060911;28;20581;-78
2022/09/10 01:51:25;;;;;;;1.67;1.00;;;;;;;;;;5088787;28;20196;-78
2022/09/10 01:53:51;;;;;;;1.50;1.00;;;;;;;;;;5081750;28;20559;-78
2022/09/10 01:56:20;;;;;;;2.17;1.10;;;;;;;;;;5078633;28;20184;-78
2022/09/10 01:58:48;;;;;;;2.80;1.10;;;;;;;;;;5061694;28;20817;-78
2022/09/10 02:01:34;;;;;;;2.93;1.27;;;;;;;;;;5085038;28;20174;-78
2022/09/10 02:04:03;;;;;;;4.03;1.20;;;;;;;;;;5072139;28;20191;-78
2022/09/10 02:06:32;;;;;;;3.73;1.00;;;;;;;;;;5061752;28;20699;-78
2022/09/10 02:08:59;;;;;;;3.77;1.17;;;;;;;;;;5059466;28;20195;-78
2022/09/10 02:11:26;;;;;;;2.60;1.10;;;;;;;;;;5091052;28;20624;-78
2022/09/10 02:13:57;;;;;;;3.63;1.33;;;;;;;;;;5058719;28;20181;-78
2022/09/10 02:16:54;;;;;;;2.03;1.10;;;;;;;;;;5098111;28;20550;-78
2022/09/10 02:19:21;;;;;;;3.10;1.10;;;;;;;;;;5059971;28;20195;-78
2022/09/10 02:21:50;;;;;;;1.90;1.00;;;;;;;;;;5074864;28;20207;-78
2022/09/10 02:24:20;;;;;;;2.67;1.10;;;;;;;;;;5039372;28;20199;-77
2022/09/10 02:26:46;;;;;;;4.80;1.10;;;;;;;;;;5066823;28;20670;-78
2022/09/10 02:29:14;;;;;;;4.47;1.53;;;;;;;;;;5055548;28;20940;-78
2022/09/10 02:31:43;;;;;;;1.93;1.10;;;;;;;;;;5039670;28;20616;-78
2022/09/10 02:34:14;;;;;;;1.70;1.10;;;;;;;;;;5063852;28;21340;-78
2022/09/10 02:36:44;;;;;;;2.03;1.17;;;;;;;;;;5082996;28;20176;-78
2022/09/10 02:39:10;;;;;;;2.17;1.10;;;;;;;;;;5043570;28;20717;-78
2022/09/10 02:41:38;;;;;;;1.37;1.10;;;;;;;;;;5071719;28;20423;-78
2022/09/10 02:44:08;;;;;;;1.73;1.10;;;;;;;;;;5064336;28;21063;-77
2022/09/10 02:46:37;;;;;;;2.43;1.20;;;;;;;;;;5074360;28;20636;-77
2022/09/10 02:49:03;;;;;;;2.17;1.37;;;;;;;;;;5070364;28;20294;-77
2022/09/10 02:51:32;;;;;;;2.70;1.27;;;;;;;;;;5057907;28;20237;-77
2022/09/10 02:53:58;;;;;;;3.07;1.40;;;;;;;;;;5046767;28;20192;-77
2022/09/10 02:56:24;;;;;;;2.30;1.20;;;;;;;;;;5076917;28;20527;-77
2022/09/10 02:58:50;;;;;;;1.37;1.20;;;;;;;;;;5075867;28;20199;-77
2022/09/10 03:01:19;;;;;;;2.70;1.20;;;;;;;;;;5042024;28;20193;-77
2022/09/10 03:03:53;;;;;;;2.50;1.03;;;;;;;;;;5074151;28;20194;-78
2022/09/10 03:06:20;;;;;;;3.03;1.20;;;;;;;;;;5065960;28;20608;-77
2022/09/10 03:08:47;;;;;;;3.53;1.43;;;;;;;;;;5091590;28;20756;-77
2022/09/10 03:11:15;;;;;;;2.57;1.00;;;;;;;;;;5093144;28;20183;-77
2022/09/10 03:13:45;;;;;;;7.50;1.40;;;;;;;;;;5076474;28;20184;-77
2022/09/10 03:16:12;;;;;;;2.47;1.20;;;;;;;;;;5086633;28;20565;-76
2022/09/10 03:18:39;;;;;;;2.40;1.20;;;;;;;;;;5075408;28;20192;-76
2022/09/10 03:21:14;;;;;;;1.57;1.03;;;;;;;;;;5061384;28;20659;-76
2022/09/10 03:23:43;;;;;;;4.00;1.40;;;;;;;;;;5089806;28;20207;-76
2022/09/10 03:26:10;;;;;;;1.10;1.00;;;;;;;;;;5052249;28;20193;-76
2022/09/10 03:28:37;;;;;;;4.30;1.20;;;;;;;;;;5055920;28;20223;-76
2022/09/10 03:31:04;;;;;;;2.23;1.30;;;;;;;;;;5063601;28;20191;-76
2022/09/10 03:33:36;;;;;;;1.73;1.20;;;;;;;;;;5075196;28;20230;-76
2022/09/10 03:36:03;;;;;;;3.10;1.20;;;;;;;;;;5091532;28;20493;-76
2022/09/10 03:38:31;;;;;;;3.93;1.33;;;;;;;;;;5079846;28;20204;-76
2022/09/10 03:40:57;;;;;;;3.47;1.27;;;;;;;;;;5073878;28;20268;-76
2022/09/10 03:43:24;;;;;;;1.37;1.13;;;;;;;;;;5071154;28;20239;-76
2022/09/10 03:45:50;;;;;;;1.73;1.07;;;;;;;;;;5088170;28;20226;-76
2022/09/10 03:48:18;;;;;;;3.33;1.20;;;;;;;;;;5078523;28;20238;-76
2022/09/10 03:50:44;;;;;;;2.97;1.40;;;;;;;;;;5074559;28;20215;-76
2022/09/10 03:53:11;;;;;;;2.40;1.40;;;;;;;;;;5074484;28;20245;-77
2022/09/10 03:55:38;;;;;;;1.77;1.13;;;;;;;;;;5079537;28;20292;-76
2022/09/10 03:58:05;;;;;;;3.90;1.37;;;;;;;;;;5069283;28;20227;-76
2022/09/10 04:00:32;;;;;;;4.10;1.40;;;;;;;;;;5065489;28;20741;-76
2022/09/10 04:03:00;;;;;;;1.50;1.10;;;;;;;;;;5061070;28;20249;-76
2022/09/10 04:05:26;;;;;;;1.83;1.37;;;;;;;;;;5082565;28;20202;-76
2022/09/10 04:07:53;;;;;;;2.10;1.13;;;;;;;;;;5078575;28;20200;-76
2022/09/10 04:10:20;;;;;;;1.90;1.20;;;;;;;;;;5077748;28;20191;-76
2022/09/10 04:12:52;;;;;;;3.33;1.33;;;;;;;;;;5068427;28;20187;-76
2022/09/10 04:15:19;;;;;;;3.43;1.60;;;;;;;;;;5075739;28;20211;-77
2022/09/10 04:17:46;;;;;;;2.87;1.50;;;;;;;;;;5073114;28;20593;-76
2022/09/10 04:20:12;;;;;;;2.53;1.30;;;;;;;;;;5071808;28;20224;-76
2022/09/10 04:22:39;;;;;;;2.30;1.30;;;;;;;;;;5057992;28;20310;-76
2022/09/10 04:25:05;;;;;;;2.67;1.40;;;;;;;;;;5071640;28;20197;-76
2022/09/10 04:27:31;;;;;;;2.80;1.73;;;;;;;;;;5073430;28;20329;-76
2022/09/10 04:29:58;;;;;;;3.80;1.80;;;;;;;;;;5061475;28;20207;-76
2022/09/10 04:32:24;;;;;;;4.33;1.70;;;;;;;;;;5070605;28;20189;-76
2022/09/10 04:34:50;;;;;;;1.87;1.50;;;;;;;;;;5077167;28;20675;-76
2022/09/10 04:37:17;;;;;;;2.17;1.50;;;;;;;;;;5096797;28;20187;-76
2022/09/10 04:39:44;;;;;;;5.03;1.50;;;;;;;;;;5067628;28;20199;-76
2022/09/10 04:42:12;;;;;;;2.47;1.40;;;;;;;;;;5071212;28;20183;-76
2022/09/10 04:44:39;;;;;;;3.83;1.60;;;;;;;;;;5070985;28;20177;-76
2022/09/10 04:47:05;;;;;;;2.60;1.60;;;;;;;;;;5066794;28;20172;-76
2022/09/10 04:49:33;;;;;;;2.07;1.60;;;;;;;;;;5075407;28;20208;-76
2022/09/10 04:51:59;;;;;;;3.63;1.83;;;;;;;;;;5070203;28;20271;-76
2022/09/10 04:54:25;;;;;;;2.73;1.67;;;;;;;;;;5062923;28;20293;-76
2022/09/10 04:56:52;;;;;;;3.40;1.40;;;;;;;;;;5052039;28;20292;-76
2022/09/10 04:59:18;;;;;;;5.67;1.67;;;;;;;;;;5074559;28;20196;-76
2022/09/10 05:01:49;;;;;;;2.53;1.60;;;;;;;;;;5070946;28;20862;-76
2022/09/10 05:04:16;;;;;;;5.17;1.70;;;;;;;;;;5071745;28;20193;-76
2022/09/10 05:06:43;;;;;;;1.70;1.40;;;;;;;;;;5058938;28;20207;-76
2022/09/10 05:09:10;;;;;;;3.03;2.03;;;;;;;;;;5086185;28;20212;-76
2022/09/10 05:11:37;;;;;;;2.80;1.70;;;;;;;;;;5078768;28;20820;-76
2022/09/10 05:14:04;;;;;;;2.23;1.50;;;;;;;;;;5054310;28;20181;-75
2022/09/10 05:16:31;;;;;;;3.10;1.67;;;;;;;;;;5075035;28;20177;-75
2022/09/10 05:18:58;;;;;;;2.33;1.70;;;;;;;;;;5071479;28;20234;-76
2022/09/10 05:21:25;;;;;;;2.43;1.50;;;;;;;;;;5066485;28;20597;-76
2022/09/10 05:23:54;;;;;;;2.97;1.73;;;;;;;;;;5078345;28;20732;-75
2022/09/10 05:26:21;;;;;;;4.37;1.50;;;;;;;;;;5091549;28;20184;-76
2022/09/10 05:28:47;;;;;;;3.60;1.73;;;;;;;;;;5064416;28;20201;-76
2022/09/10 05:31:16;;;;;;;1.83;1.50;;;;;;;;;;5074365;28;20561;-76
2022/09/10 05:33:42;;;;;;;3.03;1.80;;;;;;;;;;5072693;28;20180;-76
2022/09/10 05:36:10;;;;;;;2.77;1.80;;;;;;;;;;5079550;28;20183;-76
2022/09/10 05:38:38;;;;;;;3.90;1.70;;;;;;;;;;5059628;28;20594;-76
2022/09/10 05:41:05;;;;;;;3.97;1.73;;;;;;;;;;5074425;28;20184;-76
2022/09/10 05:43:32;;;;;;;5.17;1.90;;;;;;;;;;5056885;28;20185;-76
2022/09/10 05:45:59;;;;;;;4.77;1.70;;;;;;;;;;5038445;28;20219;-76
2022/09/10 05:48:26;;;;;;;2.97;1.90;;;;;;;;;;5080808;28;20562;-76
2022/09/10 05:50:52;;;;;;;4.67;1.90;;;;;;;;;;5071736;28;20188;-77
2022/09/10 05:53:18;;;;;;;4.77;1.73;;;;;;;;;;5088367;28;20252;-78
2022/09/10 05:55:44;;;;;;;3.53;1.60;;;;;;;;;;5098674;28;20199;-78
2022/09/10 05:58:12;;;;;;;2.47;1.67;;;;;;;;;;5076219;28;20220;-77
2022/09/10 06:00:41;;;;;;;4.57;1.87;;;;;;;;;;5073766;28;20255;-77
2022/09/10 06:03:09;;;;;;;5.17;1.80;;;;;;;;;;5069646;28;20846;-77
2022/09/10 06:05:49;;;;;;;2.20;1.43;;;;;;;;;;5060303;28;20188;-77
2022/09/10 06:08:15;;;;;;;2.33;1.60;;;;;;;;;;5076576;28;20306;-77
2022/09/10 06:10:53;;;;;;;4.27;1.80;;;;;;;;;;5055713;28;20188;-77
2022/09/10 06:13:19;;;;;;;2.90;1.60;;;;;;;;;;5075674;28;20191;-77
2022/09/10 06:15:46;;;;;;;3.80;1.90;;;;;;;;;;5069452;28;20310;-77
2022/09/10 06:18:12;;;;;;;4.13;1.60;;;;;;;;;;5056356;28;20711;-79
2022/09/10 06:20:38;;;;;;;4.67;1.60;;;;;;;;;;5074653;28;20260;-79
2022/09/10 06:23:06;;;;;;;2.70;1.53;;;;;;;;;;5073638;28;20227;-76
2022/09/10 06:25:32;;;;;;;4.47;1.80;;;;;;;;;;5094446;28;20180;-76
2022/09/10 06:28:00;;;;;;;4.30;1.70;;;;;;;;;;5075108;28;20230;-76
2022/09/10 06:30:27;;;;;;;5.13;1.70;;;;;;;;;;5070282;28;20890;-76
2022/09/10 06:32:53;;;;;;;4.37;2.07;;;;;;;;;;5085177;28;20184;-76
2022/09/10 06:35:20;;;;;;;4.57;2.10;;;;;;;;;;5073267;28;20224;-78
2022/09/10 06:37:47;;;;;;;3.37;1.90;;;;;;;;;;5063554;28;20277;-77
2022/09/10 06:40:15;;;;;;;4.83;2.30;;;;;;;;;;5091172;28;20191;-77
2022/09/10 06:42:42;;;;;;;3.83;1.87;;;;;;;;;;5082047;28;20196;-78
2022/09/10 06:45:11;;;;;;;4.40;2.20;;;;;;;;;;5087525;28;20198;-77
2022/09/10 06:48:12;;;;;;;3.97;2.10;;;;;;;;;;5022206;28;20260;-81
2022/09/10 06:50:52;;;;;;;5.23;2.30;;;;;;;;;;5069556;28;20204;-79
2022/09/10 06:53:20;;;;;;;2.77;2.10;;;;;;;;;;5051133;28;20481;-79
2022/09/10 06:55:49;;;;;;;3.53;2.20;;;;;;;;;;5069341;28;20212;-81
2022/09/10 06:58:17;;;;;;;3.63;2.23;;;;;;;;;;5044272;28;20214;-79
2022/09/10 07:00:45;;;;;;;3.57;2.60;;;;;;;;;;5076451;28;21000;-82
2022/09/10 07:03:11;;;;;;;3.80;2.30;;;;;;;;;;5066616;28;20191;-81
2022/09/10 07:05:39;;;;;;;3.93;2.20;;;;;;;;;;5071009;28;20566;-82
2022/09/10 07:08:06;;;;;;;4.30;2.00;;;;;;;;;;5060963;28;20281;-76
2022/09/10 07:10:34;;;;;;;3.00;2.13;;;;;;;;;;5067559;28;20275;-79
2022/09/10 07:13:00;;;;;;;4.27;2.10;;;;;;;;;;5073033;28;20777;-79
2022/09/10 07:15:27;;;;;;;2.63;1.90;;;;;;;;;;5068948;28;20207;-80
2022/09/10 07:17:54;;;;;;;2.37;1.67;;;;;;;;;;5074824;28;20223;-79
2022/09/10 07:20:24;;;;;;;3.60;2.00;;;;;;;;;;5067304;28;20613;-79
2022/09/10 07:22:52;;;;;;;2.27;1.90;;;;;;;;;;5074130;28;20259;-79
2022/09/10 07:25:19;;;;;;;4.73;2.30;;;;;;;;;;5073147;28;20192;-79
2022/09/10 07:28:05;;;;;;;4.43;1.90;;;;;;;;;;5084797;28;20214;-79
2022/09/10 07:30:34;;;;;;;3.63;2.00;;;;;;;;;;5078021;28;20274;-80
2022/09/10 07:33:01;;;;;;;5.67;2.30;;;;;;;;;;5077058;28;20181;-80
2022/09/10 07:35:29;;;;;;;4.50;2.20;;;;;;;;;;5064781;28;20276;-79
2022/09/10 07:37:59;;;;;;;3.07;1.80;;;;;;;;;;5059854;28;20211;-79
2022/09/10 07:40:27;;;;;;;3.17;1.90;;;;;;;;;;5058391;28;20189;-79
2022/09/10 07:42:57;;;;;;;4.43;2.00;;;;;;;;;;5059627;28;20216;-79
2022/09/10 07:45:24;;;;;;;5.63;2.03;;;;;;;;;;5095220;28;20271;-79
2022/09/10 07:47:51;;;;;;;4.10;1.97;;;;;;;;;;5082751;28;20339;-79
2022/09/10 07:50:18;;;;;;;4.67;2.13;;;;;;;;;;5071153;28;20188;-79
2022/09/10 07:52:44;;;;;;;3.90;2.20;;;;;;;;;;5064936;28;20216;-79
2022/09/10 07:55:12;;;;;;;3.73;2.10;;;;;;;;;;5073305;28;20226;-81
2022/09/10 07:57:39;;;;;;;3.83;2.00;;;;;;;;;;5057445;28;20558;-80
2022/09/10 08:00:17;;;;;;;4.97;2.20;;;;;;;;;;5032061;28;20177;-79
2022/09/10 08:02:48;;;;;;;5.63;2.20;;;;;;;;;;5057215;28;20177;-79
2022/09/10 08:05:18;;;;;;;5.33;2.00;;;;;;;;;;5041926;28;20250;-79
2022/09/10 08:07:45;;;;;;;3.37;1.80;;;;;;;;;;5057482;28;20305;-79
2022/09/10 08:10:12;;;;;;;6.47;2.10;;;;;;;;;;5057884;28;20642;-79
2022/09/10 08:12:39;;;;;;;5.63;2.20;;;;;;;;;;5056731;28;20177;-79
2022/09/10 08:15:07;;;;;;;5.93;2.17;;;;;;;;;;5041547;28;20205;-78
2022/09/10 08:17:37;;;;;;;3.40;2.27;;;;;;;;;;5042479;28;20565;-79
2022/09/10 08:20:06;;;;;;;5.17;2.23;;;;;;;;;;5039735;28;20172;-79
2022/09/10 08:22:33;;;;;;;4.13;1.90;;;;;;;;;;5039563;28;20182;-79
2022/09/10 08:25:00;;;;;;;6.00;2.33;;;;;;;;;;5041151;28;20203;-79
2022/09/10 08:27:29;;;;;;;4.43;2.10;;;;;;;;;;5040448;28;20173;-78
2022/09/10 08:29:56;;;;;;;4.70;2.37;;;;;;;;;;5040580;28;20265;-79
2022/09/10 08:32:23;;;;;;;4.67;2.33;;;;;;;;;;5044450;28;20185;-79
2022/09/10 08:34:51;;;;;;;7.37;2.60;;;;;;;;;;5062684;28;20209;-79
2022/09/10 08:37:17;;;;;;;3.60;2.40;;;;;;;;;;5043427;28;20200;-79
2022/09/10 08:39:44;;;;;;;5.03;2.00;;;;;;;;;;5082182;28;20205;-79
2022/09/10 08:42:27;;;;;;;5.50;2.23;;;;;;;;;;5044562;28;20192;-79
2022/09/10 08:45:05;;;;;;;5.97;2.30;;;;;;;;;;5057321;28;20204;-79
2022/09/10 08:48:12;;;;;;;5.33;2.20;;;;;;;;;;5042592;28;20188;-78
2022/09/10 08:50:51;;;;;;;4.67;2.17;;;;;;;;;;5015957;28;20186;-78
2022/09/10 08:53:29;;;;;;;4.37;1.80;;;;;;;;;;5014163;28;20612;-80
2022/09/10 08:56:04;;;;;;;5.20;2.40;;;;;;;;;;5061528;28;20228;-79
2022/09/10 08:58:39;;;;;;;3.80;1.67;;;;;;;;;;5058639;28;20201;-80
2022/09/10 09:01:06;;;;;;;5.23;1.80;;;;;;;;;;5077208;28;20191;-81
2022/09/10 09:03:37;;;;;;;3.57;1.80;;;;;;;;;;5056697;28;20528;-82
2022/09/10 09:06:05;;;;;;;3.73;1.83;;;;;;;;;;5048288;28;20181;-83
2022/09/10 09:08:47;;;;;;;3.23;1.53;;;;;;;;;;5053667;28;20916;-79
2022/09/10 09:11:33;;;;;;;3.47;1.73;;;;;;;;;;5062870;28;20185;-79
2022/09/10 09:14:24;;;;;;;3.90;1.70;;;;;;;;;;5043685;28;20192;-76
2022/09/10 09:17:10;;;;;;;6.47;1.97;;;;;;;;;;5056065;28;20847;-83
2022/09/10 09:19:44;;;;;;;4.77;2.00;;;;;;;;;;5044003;28;20211;-79
2022/09/10 09:22:18;;;;;;;3.40;1.87;;;;;;;;;;5063603;28;20274;-80
2022/09/10 09:24:56;;;;;;;5.10;2.00;;;;;;;;;;5028139;28;20667;-79
2022/09/10 09:27:25;;;;;;;4.07;2.27;;;;;;;;;;5040845;28;20204;-77
2022/09/10 09:30:03;;;;;;;4.90;2.07;;;;;;;;;;5039653;28;20193;-77
2022/09/10 09:32:36;;;;;;;3.20;1.87;;;;;;;;;;5039172;28;20672;-78
2022/09/10 09:35:09;;;;;;;5.23;1.97;;;;;;;;;;5056498;28;20208;-78
2022/09/10 09:37:36;;;;;;;4.93;1.80;;;;;;;;;;5056522;28;20197;-77
2022/09/10 09:40:11;;;;;;;4.20;1.93;;;;;;;;;;5054865;28;20184;-76
2022/09/10 09:42:37;;;;;;;4.10;1.97;;;;;;;;;;5041476;28;20236;-77
2022/09/10 09:45:22;;;;;;;5.17;2.10;;;;;;;;;;5038591;28;20287;-76
2022/09/10 09:47:53;;;;;;;2.90;1.70;;;;;;;;;;5057106;28;20264;-77
2022/09/10 09:50:20;;;;;;;2.90;1.77;;;;;;;;;;5063755;28;20716;-79
2022/09/10 09:52:47;;;;;;;4.77;2.40;;;;;;;;;;5049238;28;20304;-78
2022/09/10 09:55:27;;;;;;;4.43;1.90;;;;;;;;;;5062577;28;20200;-79
2022/09/10 09:58:12;;;;;;;5.13;2.00;;;;;;;;;;5077344;28;20217;-79
2022/09/10 10:00:38;;;;;;;4.37;2.10;;;;;;;;;;5044090;28;20271;-79
2022/09/10 10:03:23;;;;;;;4.90;2.10;;;;;;;;;;5080991;28;20181;-79
2022/09/10 10:05:50;;;;;;;5.27;2.10;;;;;;;;;;5073841;28;20835;-79
2022/09/10 10:08:28;;;;;;;9.10;2.23;;;;;;;;;;5059001;28;20216;-79
2022/09/10 10:10:55;;;;;;;5.40;2.00;;;;;;;;;;5038348;28;20206;-80
2022/09/10 10:13:21;;;;;;;5.23;1.93;;;;;;;;;;5075807;28;20275;-79
2022/09/10 10:15:47;;;;;;;4.90;2.07;;;;;;;;;;5075609;28;20213;-79
2022/09/10 10:18:23;;;;;;;6.10;2.30;;;;;;;;;;5070357;28;20216;-79
2022/09/10 10:21:03;;;;;;;4.27;1.97;;;;;;;;;;5052269;28;20192;-79
2022/09/10 10:23:36;;;;;;;3.87;1.83;;;;;;;;;;5057297;28;20188;-79
2022/09/10 10:26:21;;;;;;;6.13;2.10;;;;;;;;;;5094805;28;20538;-79
2022/09/10 10:28:48;;;;;;;4.87;2.03;;;;;;;;;;5080443;28;20208;-79
2022/09/10 10:31:14;;;;;;;5.23;2.10;;;;;;;;;;5067769;28;20839;-82
2022/09/10 10:33:49;;;;;;;4.17;1.80;;;;;;;;;;5055631;28;20198;-79
2022/09/10 10:36:22;;;;;;;4.23;1.80;;;;;;;;;;5078078;28;20206;-79
2022/09/10 10:38:54;;;;;;;2.73;1.80;;;;;;;;;;5062045;28;20213;-79
2022/09/10 10:41:41;;;;;;;4.33;1.77;;;;;;;;;;5072857;28;20176;-78
2022/09/10 10:44:13;;;;;;;4.67;1.80;;;;;;;;;;5075707;28;20325;-78
2022/09/10 10:46:39;;;;;;;5.30;1.80;;;;;;;;;;5062739;28;20191;-78
2022/09/10 10:49:19;;;;;;;5.07;2.00;;;;;;;;;;5095104;28;20231;-78
2022/09/10 10:51:45;;;;;;;4.83;2.17;;;;;;;;;;5087351;28;20183;-78
2022/09/10 10:54:23;;;;;;;4.77;2.10;;;;;;;;;;5081750;28;20207;-78
2022/09/10 10:57:04;;;;;;;5.67;2.10;;;;;;;;;;5078693;28;20182;-78
2022/09/10 10:59:43;;;;;;;3.33;1.70;;;;;;;;;;5089176;28;20674;-78
2022/09/10 11:02:24;;;;;;;4.20;1.80;;;;;;;;;;5072767;28;20184;-77
2022/09/10 11:04:51;;;;;;;3.67;1.90;;;;;;;;;;5096798;28;20190;-76
2022/09/10 11:07:34;;;;;;;8.00;2.13;;;;;;;;;;5040952;28;20196;-78
2022/09/10 11:10:03;;;;;;;5.07;2.17;;;;;;;;;;5054244;28;20562;-77
2022/09/10 11:12:33;;;;;;;5.53;2.47;;;;;;;;;;5036984;28;20296;-79
2022/09/10 11:15:00;;;;;;;5.10;1.93;;;;;;;;;;5074979;28;20221;-79
2022/09/10 11:17:34;;;;;;;2.93;1.90;;;;;;;;;;5090258;28;20176;-79
2022/09/10 11:20:04;;;;;;;3.20;2.00;;;;;;;;;;5083788;28;20182;-78
2022/09/10 11:22:34;;;;;;;4.13;2.03;;;;;;;;;;5093188;28;20180;-77
2022/09/10 11:25:19;;;;;;;4.67;2.10;;;;;;;;;;5074284;28;20183;-77
2022/09/10 11:27:48;;;;;;;5.07;1.90;;;;;;;;;;5093941;28;20179;-73
2022/09/10 11:30:15;;;;;;;4.37;2.03;;;;;;;;;;5083740;28;20181;-77
2022/09/10 11:32:44;;;;;;;4.60;2.03;;;;;;;;;;5101441;28;20180;-73
2022/09/10 11:35:22;;;;;;;4.93;1.90;;;;;;;;;;5083630;28;20287;-72
2022/09/10 11:38:01;;;;;;;5.93;2.00;;;;;;;;;;5080900;28;20198;-72
2022/09/10 11:40:45;;;;;;;3.80;1.97;;;;;;;;;;5072533;28;20234;-71
2022/09/10 11:43:24;;;;;;;4.77;1.97;;;;;;;;;;5062967;28;20185;-72
2022/09/10 11:45:54;;;;;;;2.90;1.90;;;;;;;;;;5084357;28;20188;-75
2022/09/10 11:48:23;;;;;;;3.77;1.83;;;;;;;;;;5081588;28;20212;-74
2022/09/10 11:50:55;;;;;;;3.80;1.90;;;;;;;;;;5076142;28;20180;-72
2022/09/10 11:53:22;;;;;;;6.47;2.03;;;;;;;;;;5069199;28;20189;-72
2022/09/10 11:55:56;;;;;;;2.70;1.80;;;;;;;;;;5051522;28;20919;-72
2022/09/10 11:58:32;;;;;;;4.43;1.70;;;;;;;;;;5069239;28;20635;-72
2022/09/10 12:01:05;;;;;;;4.57;1.87;;;;;;;;;;5051681;28;20654;-71
2022/09/10 12:03:49;;;;;;;2.37;1.60;;;;;;;;;;5074792;28;20662;-71
2022/09/10 12:06:25;;;;;;;3.47;1.90;;;;;;;;;;5074353;28;20219;-71
2022/09/10 12:09:17;;;;;;;3.27;1.50;;;;;;;;;;5072433;28;20211;-72
2022/09/10 12:12:02;;;;;;;3.60;1.40;;;;;;;;;;5049369;28;20254;-72
2022/09/10 12:14:28;;;;;;;3.60;1.60;;;;;;;;;;5070960;28;20197;-72
2022/09/10 12:16:57;;;;;;;4.90;1.90;;;;;;;;;;5074820;28;20716;-72
2022/09/10 12:19:36;;;;;;;3.23;1.40;;;;;;;;;;5066684;28;20235;-72
2022/09/10 12:22:04;;;;;;;5.07;1.43;;;;;;;;;;5084541;28;20176;-73
2022/09/10 12:24:32;;;;;;;3.37;1.40;;;;;;;;;;5078975;28;20377;-72
2022/09/10 12:26:59;;;;;;;2.47;1.50;;;;;;;;;;5070527;28;20183;-73
2022/09/10 12:29:41;;;;;;;2.50;1.63;;;;;;;;;;5071430;28;20680;-74
2022/09/10 12:32:12;;;;;;;2.30;1.60;;;;;;;;;;5087203;28;20570;-72
2022/09/10 12:34:39;;;;;;;1.97;1.43;;;;;;;;;;5074010;28;20218;-71
2022/09/10 12:37:05;;;;;;;3.67;1.47;;;;;;;;;;5089674;28;20231;-74
2022/09/10 12:39:33;;;;;;;4.53;1.67;;;;;;;;;;5071765;28;20208;-75
2022/09/10 12:42:00;;;;;;;2.83;1.43;;;;;;;;;;5094825;28;20900;-75
2022/09/10 12:44:36;;;;;;;1.90;1.40;;;;;;;;;;5084880;28;20181;-75
2022/09/10 12:47:14;;;;;;;3.37;1.40;;;;;;;;;;5057520;28;20196;-77
2022/09/10 12:49:46;;;;;;;3.03;1.50;;;;;;;;;;5045664;28;20208;-77
2022/09/10 12:52:13;;;;;;;4.07;1.50;;;;;;;;;;5078832;28;20866;-77
2022/09/10 12:54:54;;;;;;;2.80;1.40;;;;;;;;;;5056510;28;20196;-77
2022/09/10 12:57:23;;;;;;;2.30;1.43;;;;;;;;;;5040938;28;20489;-76
2022/09/10 12:59:57;;;;;;;3.00;1.53;;;;;;;;;;5075532;28;20232;-77
2022/09/10 13:02:28;;;;;;;2.90;1.13;;;;;;;;;;5057930;28;20196;-76
2022/09/10 13:04:57;;;;;;;2.57;1.30;;;;;;;;;;5068668;28;20442;-77
2022/09/10 13:07:31;;;;;;;3.63;1.10;;;;;;;;;;5041197;28;20217;-76
2022/09/10 13:10:03;;;;;;;4.03;1.37;;;;;;;;;;5054308;28;20219;-77
2022/09/10 13:12:31;;;;;;;2.30;1.10;;;;;;;;;;5074379;28;20210;-76
2022/09/10 13:15:00;;;;;;;3.50;1.27;;;;;;;;;;5076323;28;20276;-76
2022/09/10 13:17:35;;;;;;;3.30;1.30;;;;;;;;;;5057130;28;20303;-78
2022/09/10 13:20:12;;;;;;;3.13;1.13;;;;;;;;;;5059172;28;20188;-76
2022/09/10 13:23:05;;;;;;;1.87;1.30;;;;;;;;;;5055903;28;20192;-76
2022/09/10 13:25:41;;;;;;;3.30;1.10;;;;;;;;;;5025265;28;20198;-77
2022/09/10 13:28:27;;;;;;;2.57;1.40;;;;;;;;;;5057657;28;20224;-76
2022/09/10 13:31:09;;;;;;;1.77;1.00;;;;;;;;;;5071324;28;20191;-77
2022/09/10 13:33:43;;;;;;;2.87;1.20;;;;;;;;;;5075109;28;20195;-76
2022/09/10 13:36:10;;;;;;;1.93;1.13;;;;;;;;;;5071083;28;20213;-77
2022/09/10 13:38:39;;;;;;;3.53;1.20;;;;;;;;;;5073313;28;20205;-76
2022/09/10 13:41:23;;;;;;;3.77;1.10;;;;;;;;;;5076239;28;20197;-76
2022/09/10 13:43:59;;;;;;;1.60;1.00;;;;;;;;;;5067500;28;20265;-76
2022/09/10 13:46:40;;;;;;;2.23;0.90;;;;;;;;;;5077000;28;20188;-77
2022/09/10 13:49:06;;;;;;;1.07;0.80;;;;;;;;;;5068740;28;20250;-76
2022/09/10 13:51:45;;;;;;;0.97;0.80;;;;;;;;;;5088346;28;20190;-77
2022/09/10 13:54:22;;;;;;;1.90;0.90;;;;;;;;;;5093326;28;20248;-77
2022/09/10 13:56:49;;;;;;;1.07;0.80;;;;;;;;;;5099603;28;20181;-76
2022/09/10 13:59:20;;;;;;;1.13;0.80;;;;;;;;;;5093444;28;20228;-77
2022/09/10 14:01:50;;;;;;;0.97;0.80;;;;;;;;;;5062047;28;20195;-77
2022/09/10 14:04:22;;;;;;;1.87;0.90;;;;;;;;;;5098707;28;20186;-77
2022/09/10 14:06:49;;;;;;;1.57;0.80;;;;;;;;;;5071834;28;20181;-77
2022/09/10 14:09:15;;;;;;;0.80;0.73;;;;;;;;;;5081702;28;20694;-77
2022/09/10 14:11:42;;;;;;;1.30;0.77;;;;;;;;;;5097742;28;20257;-76
2022/09/10 14:14:11;;;;;;;1.27;0.80;;;;;;;;;;5091582;28;20757;-76
2022/09/10 14:16:40;;;;;;;1.40;0.80;;;;;;;;;;5103264;28;20203;-77
2022/09/10 14:19:21;;;;;;;1.53;0.80;;;;;;;;;;5078487;28;20200;-77
2022/09/10 14:21:48;;;;;;;1.20;0.80;;;;;;;;;;5093348;28;20309;-76
2022/09/10 14:24:30;;;;;;;0.93;0.80;;;;;;;;;;5076168;28;20219;-75
2022/09/10 14:27:05;;;;;;;0.80;0.80;;;;;;;;;;5095388;28;20180;-80
2022/09/10 14:29:31;;;;;;;0.90;0.80;;;;;;;;;;5098027;28;20207;-77
2022/09/10 14:32:15;;;;;;;0.70;0.70;;;;;;;;;;5097979;28;20186;-75
2022/09/10 14:34:41;;;;;;;2.20;0.87;;;;;;;;;;5089888;28;20215;-78
2022/09/10 14:37:26;;;;;;;2.57;0.90;;;;;;;;;;5062736;28;20270;-77
2022/09/10 14:39:52;;;;;;;1.07;0.73;;;;;;;;;;5102086;28;20632;-78
2022/09/10 14:42:25;;;;;;;0.80;0.80;;;;;;;;;;5096001;28;20781;-77
2022/09/10 14:44:52;;;;;;;1.23;1.10;;;;;;;;;;5096450;28;20208;-75
2022/09/10 14:47:33;;;;;;;1.60;0.90;;;;;;;;;;5093337;28;20193;-77
2022/09/10 14:50:18;;;;;;;1.30;0.97;;;;;;;;;;5082154;28;20650;-80
2022/09/10 14:52:45;;;;;;;1.23;1.00;;;;;;;;;;5078787;28;20643;-78
2022/09/10 14:55:11;;;;;;;1.63;1.10;;;;;;;;;;5071435;28;20235;-77
2022/09/10 14:57:39;;;;;;;2.77;1.00;;;;;;;;;;5093263;28;20237;-76
2022/09/10 15:00:05;;;;;;;1.07;0.80;;;;;;;;;;5067248;28;20183;-77
2022/09/10 15:02:31;;;;;;;1.23;0.80;;;;;;;;;;5053201;28;20237;-77
2022/09/10 15:04:57;;;;;;;3.60;1.00;;;;;;;;;;5081597;28;20631;-77